sensor_id;sensor_type;location;lat;lon;timestamp;P1;durP1;ratioP1;P2;durP2;ratioP2
21215;SDS011;10765;50.954;5.322;2024-02-21T00:00:54;24.30;;;16.87;;
21215;SDS011;10765;50.954;5.322;2024-02-21T00:03:21;23.40;;;16.13;;
21215;SDS011;10765;50.954;5.322;2024-02-21T00:05:48;23.67;;;16.07;;
21215;SDS011;10765;50.954;5.322;2024-02-21T00:08:15;24.40;;;15.27;;
21215;SDS011;10765;50.954;5.322;2024-02-21T00:10:42;21.83;;;15.83;;
21215;SDS011;10765;50.954;5.322;2024-02-21T00:13:10;26.97;;;14.73;;
21215;SDS011;10765;50.954;5.322;2024-02-21T00:15:37;23.03;;;15.10;;
21215;SDS011;10765;50.954;5.322;2024-02-21T00:18:04;19.03;;;14.20;;
21215;SDS011;10765;50.954;5.322;2024-02-21T00:20:31;23.87;;;14.90;;
21215;SDS011;10765;50.954;5.322;2024-02-21T00:22:58;26.20;;;15.10;;
21215;SDS011;10765;50.954;5.322;2024-02-21T00:25:25;25.40;;;15.07;;
21215;SDS011;10765;50.954;5.322;2024-02-21T00:27:51;22.53;;;14.30;;
21215;SDS011;10765;50.954;5.322;2024-02-21T00:30:20;25.37;;;14.33;;
21215;SDS011;10765;50.954;5.322;2024-02-21T00:32:47;21.70;;;14.07;;
21215;SDS011;10765;50.954;5.322;2024-02-21T00:35:14;21.83;;;13.30;;
21215;SDS011;10765;50.954;5.322;2024-02-21T00:37:41;22.97;;;14.63;;
21215;SDS011;10765;50.954;5.322;2024-02-21T00:40:08;23.83;;;14.03;;
21215;SDS011;10765;50.954;5.322;2024-02-21T00:42:35;21.03;;;14.17;;
21215;SDS011;10765;50.954;5.322;2024-02-21T00:45:02;22.30;;;14.17;;
21215;SDS011;10765;50.954;5.322;2024-02-21T00:47:31;21.07;;;14.00;;
21215;SDS011;10765;50.954;5.322;2024-02-21T00:49:58;24.97;;;14.00;;
21215;SDS011;10765;50.954;5.322;2024-02-21T00:52:27;21.60;;;12.57;;
21215;SDS011;10765;50.954;5.322;2024-02-21T00:54:53;22.07;;;13.17;;
21215;SDS011;10765;50.954;5.322;2024-02-21T00:57:20;22.67;;;13.53;;
21215;SDS011;10765;50.954;5.322;2024-02-21T00:59:48;21.20;;;12.87;;
21215;SDS011;10765;50.954;5.322;2024-02-21T01:02:17;20.13;;;13.00;;
21215;SDS011;10765;50.954;5.322;2024-02-21T01:04:45;19.03;;;13.20;;
21215;SDS011;10765;50.954;5.322;2024-02-21T01:07:12;23.77;;;13.50;;
21215;SDS011;10765;50.954;5.322;2024-02-21T01:09:39;20.90;;;12.77;;
21215;SDS011;10765;50.954;5.322;2024-02-21T01:12:06;21.53;;;12.73;;
21215;SDS011;10765;50.954;5.322;2024-02-21T01:14:33;22.10;;;12.10;;
21215;SDS011;10765;50.954;5.322;2024-02-21T01:17:00;17.60;;;12.27;;
21215;SDS011;10765;50.954;5.322;2024-02-21T01:19:27;20.90;;;12.27;;
21215;SDS011;10765;50.954;5.322;2024-02-21T01:21:55;16.80;;;12.17;;
21215;SDS011;10765;50.954;5.322;2024-02-21T01:24:22;22.07;;;12.80;;
21215;SDS011;10765;50.954;5.322;2024-02-21T01:26:49;21.33;;;12.47;;
21215;SDS011;10765;50.954;5.322;2024-02-21T01:29:16;16.70;;;11.20;;
21215;SDS011;10765;50.954;5.322;2024-02-21T01:31:43;18.97;;;11.10;;
21215;SDS011;10765;50.954;5.322;2024-02-21T01:34:09;17.17;;;11.23;;
21215;SDS011;10765;50.954;5.322;2024-02-21T01:36:36;19.10;;;11.87;;
21215;SDS011;10765;50.954;5.322;2024-02-21T01:39:05;18.27;;;10.23;;
21215;SDS011;10765;50.954;5.322;2024-02-21T01:41:31;18.67;;;11.00;;
21215;SDS011;10765;50.954;5.322;2024-02-21T01:43:58;16.97;;;10.87;;
21215;SDS011;10765;50.954;5.322;2024-02-21T01:46:25;20.37;;;11.57;;
21215;SDS011;10765;50.954;5.322;2024-02-21T01:48:53;16.23;;;10.23;;
21215;SDS011;10765;50.954;5.322;2024-02-21T01:51:21;16.20;;;10.43;;
21215;SDS011;10765;50.954;5.322;2024-02-21T01:53:48;20.03;;;10.33;;
21215;SDS011;10765;50.954;5.322;2024-02-21T01:56:19;19.87;;;9.93;;
21215;SDS011;10765;50.954;5.322;2024-02-21T01:58:46;18.80;;;10.07;;
21215;SDS011;10765;50.954;5.322;2024-02-21T02:01:15;17.97;;;9.60;;
21215;SDS011;10765;50.954;5.322;2024-02-21T02:03:44;17.63;;;9.73;;
21215;SDS011;10765;50.954;5.322;2024-02-21T02:06:12;19.67;;;9.90;;
21215;SDS011;10765;50.954;5.322;2024-02-21T02:08:40;18.40;;;9.93;;
21215;SDS011;10765;50.954;5.322;2024-02-21T02:11:07;18.77;;;10.07;;
21215;SDS011;10765;50.954;5.322;2024-02-21T02:13:35;13.27;;;9.20;;
21215;SDS011;10765;50.954;5.322;2024-02-21T02:16:02;16.00;;;9.90;;
21215;SDS011;10765;50.954;5.322;2024-02-21T02:18:29;15.47;;;10.13;;
21215;SDS011;10765;50.954;5.322;2024-02-21T02:20:56;18.50;;;9.73;;
21215;SDS011;10765;50.954;5.322;2024-02-21T02:23:25;13.87;;;9.10;;
21215;SDS011;10765;50.954;5.322;2024-02-21T02:25:52;16.93;;;9.47;;
21215;SDS011;10765;50.954;5.322;2024-02-21T02:28:19;18.60;;;9.87;;
21215;SDS011;10765;50.954;5.322;2024-02-21T02:30:47;18.83;;;9.53;;
21215;SDS011;10765;50.954;5.322;2024-02-21T02:33:14;16.90;;;9.60;;
21215;SDS011;10765;50.954;5.322;2024-02-21T02:35:42;14.00;;;9.30;;
21215;SDS011;10765;50.954;5.322;2024-02-21T02:38:09;21.10;;;9.67;;
21215;SDS011;10765;50.954;5.322;2024-02-21T02:40:38;22.20;;;9.70;;
21215;SDS011;10765;50.954;5.322;2024-02-21T02:43:05;18.10;;;9.67;;
21215;SDS011;10765;50.954;5.322;2024-02-21T02:45:32;16.40;;;10.03;;
21215;SDS011;10765;50.954;5.322;2024-02-21T02:47:59;15.10;;;9.43;;
21215;SDS011;10765;50.954;5.322;2024-02-21T02:50:26;12.90;;;9.47;;
21215;SDS011;10765;50.954;5.322;2024-02-21T02:52:53;14.77;;;9.70;;
21215;SDS011;10765;50.954;5.322;2024-02-21T02:55:20;18.77;;;9.70;;
21215;SDS011;10765;50.954;5.322;2024-02-21T02:57:49;12.73;;;9.23;;
21215;SDS011;10765;50.954;5.322;2024-02-21T03:00:16;13.47;;;9.60;;
21215;SDS011;10765;50.954;5.322;2024-02-21T03:02:43;14.43;;;9.73;;
21215;SDS011;10765;50.954;5.322;2024-02-21T03:05:12;14.30;;;9.13;;
21215;SDS011;10765;50.954;5.322;2024-02-21T03:07:40;16.50;;;9.67;;
21215;SDS011;10765;50.954;5.322;2024-02-21T03:10:07;14.90;;;9.13;;
21215;SDS011;10765;50.954;5.322;2024-02-21T03:12:35;15.63;;;9.53;;
21215;SDS011;10765;50.954;5.322;2024-02-21T03:15:03;16.83;;;9.40;;
21215;SDS011;10765;50.954;5.322;2024-02-21T03:17:31;17.13;;;9.47;;
21215;SDS011;10765;50.954;5.322;2024-02-21T03:19:59;15.43;;;8.67;;
21215;SDS011;10765;50.954;5.322;2024-02-21T03:22:30;15.57;;;9.17;;
21215;SDS011;10765;50.954;5.322;2024-02-21T03:24:57;16.67;;;9.77;;
21215;SDS011;10765;50.954;5.322;2024-02-21T03:27:24;18.23;;;9.77;;
21215;SDS011;10765;50.954;5.322;2024-02-21T03:29:51;17.07;;;9.23;;
21215;SDS011;10765;50.954;5.322;2024-02-21T03:32:19;14.50;;;9.20;;
21215;SDS011;10765;50.954;5.322;2024-02-21T03:34:46;12.90;;;9.00;;
21215;SDS011;10765;50.954;5.322;2024-02-21T03:37:13;14.77;;;9.63;;
21215;SDS011;10765;50.954;5.322;2024-02-21T03:39:40;18.97;;;9.20;;
21215;SDS011;10765;50.954;5.322;2024-02-21T03:42:07;15.63;;;9.70;;
21215;SDS011;10765;50.954;5.322;2024-02-21T03:44:34;17.03;;;9.63;;
21215;SDS011;10765;50.954;5.322;2024-02-21T03:47:00;15.27;;;9.20;;
21215;SDS011;10765;50.954;5.322;2024-02-21T03:49:29;18.50;;;9.67;;
21215;SDS011;10765;50.954;5.322;2024-02-21T03:51:56;15.20;;;9.30;;
21215;SDS011;10765;50.954;5.322;2024-02-21T03:54:23;14.50;;;9.13;;
21215;SDS011;10765;50.954;5.322;2024-02-21T03:56:49;15.00;;;9.47;;
21215;SDS011;10765;50.954;5.322;2024-02-21T03:59:16;16.90;;;9.30;;
21215;SDS011;10765;50.954;5.322;2024-02-21T04:01:43;16.57;;;9.30;;
21215;SDS011;10765;50.954;5.322;2024-02-21T04:04:10;17.70;;;10.07;;
21215;SDS011;10765;50.954;5.322;2024-02-21T04:06:46;17.20;;;9.63;;
21215;SDS011;10765;50.954;5.322;2024-02-21T04:09:13;17.20;;;9.93;;
21215;SDS011;10765;50.954;5.322;2024-02-21T04:11:40;19.27;;;9.43;;
21215;SDS011;10765;50.954;5.322;2024-02-21T04:14:07;14.90;;;9.10;;
21215;SDS011;10765;50.954;5.322;2024-02-21T04:16:34;16.47;;;8.77;;
21215;SDS011;10765;50.954;5.322;2024-02-21T04:19:01;15.20;;;9.23;;
21215;SDS011;10765;50.954;5.322;2024-02-21T04:21:28;18.00;;;9.80;;
21215;SDS011;10765;50.954;5.322;2024-02-21T04:23:56;15.70;;;9.37;;
21215;SDS011;10765;50.954;5.322;2024-02-21T04:26:23;17.07;;;9.17;;
21215;SDS011;10765;50.954;5.322;2024-02-21T04:28:50;12.57;;;9.40;;
21215;SDS011;10765;50.954;5.322;2024-02-21T04:31:17;14.63;;;9.80;;
21215;SDS011;10765;50.954;5.322;2024-02-21T04:33:44;16.77;;;9.53;;
21215;SDS011;10765;50.954;5.322;2024-02-21T04:36:11;15.07;;;9.20;;
21215;SDS011;10765;50.954;5.322;2024-02-21T04:38:38;14.33;;;9.43;;
21215;SDS011;10765;50.954;5.322;2024-02-21T04:41:07;15.13;;;9.37;;
21215;SDS011;10765;50.954;5.322;2024-02-21T04:43:34;17.57;;;9.73;;
21215;SDS011;10765;50.954;5.322;2024-02-21T04:46:01;17.23;;;9.30;;
21215;SDS011;10765;50.954;5.322;2024-02-21T04:48:28;17.60;;;9.30;;
21215;SDS011;10765;50.954;5.322;2024-02-21T04:50:55;16.87;;;8.60;;
21215;SDS011;10765;50.954;5.322;2024-02-21T04:53:21;15.87;;;9.73;;
21215;SDS011;10765;50.954;5.322;2024-02-21T04:55:48;14.73;;;8.93;;
21215;SDS011;10765;50.954;5.322;2024-02-21T04:58:17;18.53;;;9.07;;
21215;SDS011;10765;50.954;5.322;2024-02-21T05:00:43;13.13;;;8.63;;
21215;SDS011;10765;50.954;5.322;2024-02-21T05:03:10;17.17;;;8.77;;
21215;SDS011;10765;50.954;5.322;2024-02-21T05:05:37;11.63;;;8.67;;
21215;SDS011;10765;50.954;5.322;2024-02-21T05:08:04;15.00;;;8.87;;
21215;SDS011;10765;50.954;5.322;2024-02-21T05:10:31;13.63;;;8.87;;
21215;SDS011;10765;50.954;5.322;2024-02-21T05:12:58;15.83;;;9.13;;
21215;SDS011;10765;50.954;5.322;2024-02-21T05:15:27;17.13;;;9.43;;
21215;SDS011;10765;50.954;5.322;2024-02-21T05:17:54;15.27;;;9.20;;
21215;SDS011;10765;50.954;5.322;2024-02-21T05:20:21;16.20;;;8.77;;
21215;SDS011;10765;50.954;5.322;2024-02-21T05:22:48;14.17;;;8.37;;
21215;SDS011;10765;50.954;5.322;2024-02-21T05:25:15;14.20;;;8.30;;
21215;SDS011;10765;50.954;5.322;2024-02-21T05:27:41;16.30;;;7.83;;
21215;SDS011;10765;50.954;5.322;2024-02-21T05:30:09;12.43;;;8.37;;
21215;SDS011;10765;50.954;5.322;2024-02-21T05:32:38;13.03;;;8.30;;
21215;SDS011;10765;50.954;5.322;2024-02-21T05:35:05;13.23;;;8.13;;
21215;SDS011;10765;50.954;5.322;2024-02-21T05:37:32;11.83;;;7.87;;
21215;SDS011;10765;50.954;5.322;2024-02-21T05:39:59;12.37;;;8.13;;
21215;SDS011;10765;50.954;5.322;2024-02-21T05:42:26;11.33;;;8.13;;
21215;SDS011;10765;50.954;5.322;2024-02-21T05:44:53;9.83;;;7.73;;
21215;SDS011;10765;50.954;5.322;2024-02-21T05:47:20;15.30;;;8.57;;
21215;SDS011;10765;50.954;5.322;2024-02-21T05:49:48;12.53;;;8.20;;
21215;SDS011;10765;50.954;5.322;2024-02-21T05:52:18;12.80;;;7.67;;
21215;SDS011;10765;50.954;5.322;2024-02-21T05:54:45;13.03;;;7.67;;
21215;SDS011;10765;50.954;5.322;2024-02-21T05:57:12;11.17;;;7.90;;
21215;SDS011;10765;50.954;5.322;2024-02-21T05:59:39;11.50;;;7.90;;
21215;SDS011;10765;50.954;5.322;2024-02-21T06:02:07;10.70;;;7.27;;
21215;SDS011;10765;50.954;5.322;2024-02-21T06:04:34;10.47;;;7.30;;
21215;SDS011;10765;50.954;5.322;2024-02-21T06:07:02;10.47;;;7.03;;
21215;SDS011;10765;50.954;5.322;2024-02-21T06:09:29;9.37;;;7.20;;
21215;SDS011;10765;50.954;5.322;2024-02-21T06:11:57;9.63;;;7.33;;
21215;SDS011;10765;50.954;5.322;2024-02-21T06:14:23;9.80;;;7.13;;
21215;SDS011;10765;50.954;5.322;2024-02-21T06:16:50;8.70;;;7.27;;
21215;SDS011;10765;50.954;5.322;2024-02-21T06:19:17;9.80;;;7.03;;
21215;SDS011;10765;50.954;5.322;2024-02-21T06:21:44;10.20;;;7.73;;
21215;SDS011;10765;50.954;5.322;2024-02-21T06:24:12;9.00;;;6.93;;
21215;SDS011;10765;50.954;5.322;2024-02-21T06:26:40;11.97;;;7.87;;
21215;SDS011;10765;50.954;5.322;2024-02-21T06:29:07;11.10;;;7.23;;
21215;SDS011;10765;50.954;5.322;2024-02-21T06:31:34;9.57;;;7.40;;
21215;SDS011;10765;50.954;5.322;2024-02-21T06:34:02;11.43;;;8.40;;
21215;SDS011;10765;50.954;5.322;2024-02-21T06:36:29;12.73;;;8.93;;
21215;SDS011;10765;50.954;5.322;2024-02-21T06:38:56;11.50;;;8.10;;
21215;SDS011;10765;50.954;5.322;2024-02-21T06:41:24;11.83;;;8.27;;
21215;SDS011;10765;50.954;5.322;2024-02-21T06:43:51;10.63;;;8.47;;
21215;SDS011;10765;50.954;5.322;2024-02-21T06:46:24;16.77;;;9.37;;
21215;SDS011;10765;50.954;5.322;2024-02-21T06:48:51;12.63;;;9.60;;
21215;SDS011;10765;50.954;5.322;2024-02-21T06:51:18;13.87;;;10.40;;
21215;SDS011;10765;50.954;5.322;2024-02-21T06:53:45;15.00;;;9.00;;
21215;SDS011;10765;50.954;5.322;2024-02-21T06:56:12;14.60;;;9.20;;
21215;SDS011;10765;50.954;5.322;2024-02-21T06:58:40;14.80;;;9.80;;
21215;SDS011;10765;50.954;5.322;2024-02-21T07:01:07;12.57;;;9.47;;
21215;SDS011;10765;50.954;5.322;2024-02-21T07:03:35;14.63;;;8.63;;
21215;SDS011;10765;50.954;5.322;2024-02-21T07:06:02;13.67;;;8.77;;
21215;SDS011;10765;50.954;5.322;2024-02-21T07:08:29;13.87;;;8.60;;
21215;SDS011;10765;50.954;5.322;2024-02-21T07:10:56;15.77;;;9.30;;
21215;SDS011;10765;50.954;5.322;2024-02-21T07:13:23;14.17;;;8.47;;
21215;SDS011;10765;50.954;5.322;2024-02-21T07:15:51;14.03;;;8.13;;
21215;SDS011;10765;50.954;5.322;2024-02-21T07:18:18;16.70;;;9.73;;
21215;SDS011;10765;50.954;5.322;2024-02-21T07:20:45;15.87;;;9.20;;
21215;SDS011;10765;50.954;5.322;2024-02-21T07:23:12;16.37;;;8.87;;
21215;SDS011;10765;50.954;5.322;2024-02-21T07:25:39;15.17;;;9.20;;
21215;SDS011;10765;50.954;5.322;2024-02-21T07:28:06;13.23;;;9.67;;
21215;SDS011;10765;50.954;5.322;2024-02-21T07:30:34;17.90;;;9.87;;
21215;SDS011;10765;50.954;5.322;2024-02-21T07:33:02;14.97;;;9.37;;
21215;SDS011;10765;50.954;5.322;2024-02-21T07:35:29;13.87;;;9.40;;
21215;SDS011;10765;50.954;5.322;2024-02-21T07:37:56;11.90;;;9.20;;
21215;SDS011;10765;50.954;5.322;2024-02-21T07:40:23;13.67;;;9.17;;
21215;SDS011;10765;50.954;5.322;2024-02-21T07:42:50;14.27;;;9.53;;
21215;SDS011;10765;50.954;5.322;2024-02-21T07:45:17;16.83;;;9.63;;
21215;SDS011;10765;50.954;5.322;2024-02-21T07:47:46;12.80;;;8.90;;
21215;SDS011;10765;50.954;5.322;2024-02-21T07:50:15;14.57;;;8.57;;
21215;SDS011;10765;50.954;5.322;2024-02-21T07:52:42;13.67;;;8.47;;
21215;SDS011;10765;50.954;5.322;2024-02-21T07:55:09;15.07;;;9.33;;
21215;SDS011;10765;50.954;5.322;2024-02-21T07:57:36;12.57;;;8.90;;
21215;SDS011;10765;50.954;5.322;2024-02-21T08:00:04;13.20;;;9.20;;
21215;SDS011;10765;50.954;5.322;2024-02-21T08:02:34;15.07;;;9.90;;
21215;SDS011;10765;50.954;5.322;2024-02-21T08:05:02;14.43;;;9.33;;
21215;SDS011;10765;50.954;5.322;2024-02-21T08:07:31;12.90;;;8.20;;
21215;SDS011;10765;50.954;5.322;2024-02-21T08:09:58;14.27;;;9.20;;
21215;SDS011;10765;50.954;5.322;2024-02-21T08:12:25;13.03;;;8.30;;
21215;SDS011;10765;50.954;5.322;2024-02-21T08:14:52;10.83;;;7.73;;
21215;SDS011;10765;50.954;5.322;2024-02-21T08:17:20;12.10;;;7.60;;
21215;SDS011;10765;50.954;5.322;2024-02-21T08:19:47;13.13;;;7.63;;
21215;SDS011;10765;50.954;5.322;2024-02-21T08:22:14;13.60;;;7.43;;
21215;SDS011;10765;50.954;5.322;2024-02-21T08:24:42;11.97;;;6.53;;
21215;SDS011;10765;50.954;5.322;2024-02-21T08:27:11;10.03;;;6.50;;
21215;SDS011;10765;50.954;5.322;2024-02-21T08:29:37;9.67;;;6.20;;
21215;SDS011;10765;50.954;5.322;2024-02-21T08:32:04;9.27;;;6.43;;
21215;SDS011;10765;50.954;5.322;2024-02-21T08:34:31;12.13;;;6.00;;
21215;SDS011;10765;50.954;5.322;2024-02-21T08:36:59;13.20;;;6.30;;
21215;SDS011;10765;50.954;5.322;2024-02-21T08:39:26;7.73;;;5.83;;
21215;SDS011;10765;50.954;5.322;2024-02-21T08:41:56;7.93;;;4.87;;
21215;SDS011;10765;50.954;5.322;2024-02-21T08:44:23;10.43;;;5.33;;
21215;SDS011;10765;50.954;5.322;2024-02-21T08:46:51;8.63;;;4.70;;
21215;SDS011;10765;50.954;5.322;2024-02-21T08:49:18;9.07;;;5.07;;
21215;SDS011;10765;50.954;5.322;2024-02-21T08:51:45;9.30;;;5.43;;
21215;SDS011;10765;50.954;5.322;2024-02-21T08:54:12;9.43;;;5.27;;
21215;SDS011;10765;50.954;5.322;2024-02-21T08:56:39;11.80;;;5.27;;
21215;SDS011;10765;50.954;5.322;2024-02-21T08:59:07;7.57;;;4.73;;
21215;SDS011;10765;50.954;5.322;2024-02-21T09:01:34;8.47;;;4.87;;
21215;SDS011;10765;50.954;5.322;2024-02-21T09:04:02;7.40;;;5.07;;
21215;SDS011;10765;50.954;5.322;2024-02-21T09:06:29;9.00;;;5.47;;
21215;SDS011;10765;50.954;5.322;2024-02-21T09:08:58;9.83;;;5.43;;
21215;SDS011;10765;50.954;5.322;2024-02-21T09:11:25;11.03;;;5.03;;
21215;SDS011;10765;50.954;5.322;2024-02-21T09:13:53;7.67;;;5.13;;
21215;SDS011;10765;50.954;5.322;2024-02-21T09:16:21;6.13;;;4.50;;
21215;SDS011;10765;50.954;5.322;2024-02-21T09:18:48;8.17;;;4.83;;
21215;SDS011;10765;50.954;5.322;2024-02-21T09:21:15;7.30;;;4.50;;
21215;SDS011;10765;50.954;5.322;2024-02-21T09:23:42;9.37;;;4.60;;
21215;SDS011;10765;50.954;5.322;2024-02-21T09:26:09;9.13;;;4.53;;
21215;SDS011;10765;50.954;5.322;2024-02-21T09:28:38;8.67;;;4.47;;
21215;SDS011;10765;50.954;5.322;2024-02-21T09:31:05;7.47;;;4.83;;
21215;SDS011;10765;50.954;5.322;2024-02-21T09:33:34;8.57;;;4.60;;
21215;SDS011;10765;50.954;5.322;2024-02-21T09:36:00;6.53;;;4.70;;
21215;SDS011;10765;50.954;5.322;2024-02-21T09:38:27;7.37;;;4.20;;
21215;SDS011;10765;50.954;5.322;2024-02-21T09:40:55;8.67;;;4.60;;
21215;SDS011;10765;50.954;5.322;2024-02-21T09:43:26;7.87;;;4.17;;
21215;SDS011;10765;50.954;5.322;2024-02-21T09:45:54;9.03;;;4.83;;
21215;SDS011;10765;50.954;5.322;2024-02-21T09:48:30;10.50;;;4.87;;
21215;SDS011;10765;50.954;5.322;2024-02-21T09:51:09;7.03;;;4.30;;
21215;SDS011;10765;50.954;5.322;2024-02-21T09:53:38;6.90;;;4.30;;
21215;SDS011;10765;50.954;5.322;2024-02-21T09:56:07;10.37;;;4.70;;
21215;SDS011;10765;50.954;5.322;2024-02-21T09:58:35;9.63;;;5.20;;
21215;SDS011;10765;50.954;5.322;2024-02-21T10:01:02;8.93;;;4.70;;
21215;SDS011;10765;50.954;5.322;2024-02-21T10:03:31;10.77;;;4.97;;
21215;SDS011;10765;50.954;5.322;2024-02-21T10:06:00;9.23;;;4.60;;
21215;SDS011;10765;50.954;5.322;2024-02-21T10:08:27;7.93;;;4.83;;
21215;SDS011;10765;50.954;5.322;2024-02-21T10:10:54;6.73;;;4.13;;
21215;SDS011;10765;50.954;5.322;2024-02-21T10:13:24;8.23;;;4.80;;
21215;SDS011;10765;50.954;5.322;2024-02-21T10:16:02;10.13;;;4.53;;
21215;SDS011;10765;50.954;5.322;2024-02-21T10:18:33;8.87;;;4.60;;
21215;SDS011;10765;50.954;5.322;2024-02-21T10:21:02;8.27;;;4.23;;
21215;SDS011;10765;50.954;5.322;2024-02-21T10:23:40;9.17;;;4.37;;
21215;SDS011;10765;50.954;5.322;2024-02-21T10:26:10;9.43;;;4.20;;
21215;SDS011;10765;50.954;5.322;2024-02-21T10:28:37;8.40;;;4.10;;
21215;SDS011;10765;50.954;5.322;2024-02-21T10:31:07;10.80;;;4.77;;
21215;SDS011;10765;50.954;5.322;2024-02-21T10:33:35;10.17;;;4.60;;
21215;SDS011;10765;50.954;5.322;2024-02-21T10:36:07;8.47;;;4.00;;
21215;SDS011;10765;50.954;5.322;2024-02-21T10:38:35;5.93;;;4.00;;
21215;SDS011;10765;50.954;5.322;2024-02-21T10:41:04;9.50;;;3.90;;
21215;SDS011;10765;50.954;5.322;2024-02-21T10:43:33;6.00;;;3.57;;
21215;SDS011;10765;50.954;5.322;2024-02-21T10:46:06;6.53;;;3.87;;
21215;SDS011;10765;50.954;5.322;2024-02-21T10:48:43;9.60;;;4.03;;
21215;SDS011;10765;50.954;5.322;2024-02-21T10:51:14;7.87;;;3.97;;
21215;SDS011;10765;50.954;5.322;2024-02-21T10:53:44;6.50;;;3.80;;
21215;SDS011;10765;50.954;5.322;2024-02-21T10:56:22;7.97;;;3.90;;
21215;SDS011;10765;50.954;5.322;2024-02-21T10:58:54;4.90;;;3.70;;
21215;SDS011;10765;50.954;5.322;2024-02-21T11:01:23;7.07;;;3.90;;
21215;SDS011;10765;50.954;5.322;2024-02-21T11:03:52;7.87;;;3.90;;
21215;SDS011;10765;50.954;5.322;2024-02-21T11:06:22;10.90;;;4.17;;
21215;SDS011;10765;50.954;5.322;2024-02-21T11:09:00;8.53;;;4.23;;
21215;SDS011;10765;50.954;5.322;2024-02-21T11:11:29;8.77;;;4.20;;
21215;SDS011;10765;50.954;5.322;2024-02-21T11:14:03;6.43;;;4.47;;
21215;SDS011;10765;50.954;5.322;2024-02-21T11:16:34;5.60;;;3.83;;
21215;SDS011;10765;50.954;5.322;2024-02-21T11:19:06;6.27;;;3.60;;
21215;SDS011;10765;50.954;5.322;2024-02-21T11:21:35;8.23;;;3.83;;
21215;SDS011;10765;50.954;5.322;2024-02-21T11:24:06;8.03;;;4.53;;
21215;SDS011;10765;50.954;5.322;2024-02-21T11:26:33;9.10;;;4.07;;
21215;SDS011;10765;50.954;5.322;2024-02-21T11:29:03;9.83;;;4.20;;
21215;SDS011;10765;50.954;5.322;2024-02-21T11:31:40;8.03;;;4.10;;
21215;SDS011;10765;50.954;5.322;2024-02-21T11:34:08;6.93;;;4.20;;
21215;SDS011;10765;50.954;5.322;2024-02-21T11:36:39;8.57;;;4.53;;
21215;SDS011;10765;50.954;5.322;2024-02-21T11:39:16;9.53;;;4.00;;
21215;SDS011;10765;50.954;5.322;2024-02-21T11:41:45;6.73;;;4.00;;
21215;SDS011;10765;50.954;5.322;2024-02-21T11:44:12;7.17;;;4.03;;
21215;SDS011;10765;50.954;5.322;2024-02-21T11:46:39;7.93;;;3.77;;
21215;SDS011;10765;50.954;5.322;2024-02-21T11:49:06;6.87;;;3.20;;
21215;SDS011;10765;50.954;5.322;2024-02-21T11:51:34;6.97;;;3.83;;
21215;SDS011;10765;50.954;5.322;2024-02-21T11:54:05;7.37;;;3.77;;
21215;SDS011;10765;50.954;5.322;2024-02-21T11:56:32;8.43;;;3.33;;
21215;SDS011;10765;50.954;5.322;2024-02-21T11:59:01;6.17;;;3.50;;
21215;SDS011;10765;50.954;5.322;2024-02-21T12:01:28;5.73;;;2.80;;
21215;SDS011;10765;50.954;5.322;2024-02-21T12:03:55;7.50;;;3.87;;
21215;SDS011;10765;50.954;5.322;2024-02-21T12:06:22;7.37;;;3.33;;
21215;SDS011;10765;50.954;5.322;2024-02-21T12:08:50;6.77;;;3.10;;
21215;SDS011;10765;50.954;5.322;2024-02-21T12:11:21;4.80;;;3.27;;
21215;SDS011;10765;50.954;5.322;2024-02-21T12:13:58;5.60;;;3.20;;
21215;SDS011;10765;50.954;5.322;2024-02-21T12:16:26;7.50;;;3.60;;
21215;SDS011;10765;50.954;5.322;2024-02-21T12:18:54;6.33;;;3.17;;
21215;SDS011;10765;50.954;5.322;2024-02-21T12:21:23;6.83;;;3.20;;
21215;SDS011;10765;50.954;5.322;2024-02-21T12:23:52;3.43;;;2.70;;
21215;SDS011;10765;50.954;5.322;2024-02-21T12:26:19;6.03;;;2.87;;
21215;SDS011;10765;50.954;5.322;2024-02-21T12:28:46;6.53;;;2.80;;
21215;SDS011;10765;50.954;5.322;2024-02-21T12:31:12;5.80;;;3.40;;
21215;SDS011;10765;50.954;5.322;2024-02-21T12:33:41;8.23;;;3.00;;
21215;SDS011;10765;50.954;5.322;2024-02-21T12:36:08;4.23;;;2.43;;
21215;SDS011;10765;50.954;5.322;2024-02-21T12:38:35;5.90;;;2.77;;
21215;SDS011;10765;50.954;5.322;2024-02-21T12:41:03;3.23;;;2.30;;
21215;SDS011;10765;50.954;5.322;2024-02-21T12:43:30;5.67;;;2.70;;
21215;SDS011;10765;50.954;5.322;2024-02-21T12:45:58;3.90;;;2.40;;
21215;SDS011;10765;50.954;5.322;2024-02-21T12:48:25;5.20;;;2.73;;
21215;SDS011;10765;50.954;5.322;2024-02-21T12:50:52;7.10;;;2.57;;
21215;SDS011;10765;50.954;5.322;2024-02-21T12:53:19;8.10;;;3.07;;
21215;SDS011;10765;50.954;5.322;2024-02-21T12:55:48;5.90;;;2.30;;
21215;SDS011;10765;50.954;5.322;2024-02-21T12:58:16;3.57;;;2.37;;
21215;SDS011;10765;50.954;5.322;2024-02-21T13:00:43;4.17;;;2.37;;
21215;SDS011;10765;50.954;5.322;2024-02-21T13:03:11;7.00;;;2.40;;
21215;SDS011;10765;50.954;5.322;2024-02-21T13:05:38;5.13;;;2.23;;
21215;SDS011;10765;50.954;5.322;2024-02-21T13:08:05;4.47;;;2.10;;
21215;SDS011;10765;50.954;5.322;2024-02-21T13:10:32;4.90;;;2.57;;
21215;SDS011;10765;50.954;5.322;2024-02-21T13:13:00;4.50;;;2.40;;
21215;SDS011;10765;50.954;5.322;2024-02-21T13:15:28;6.33;;;2.47;;
21215;SDS011;10765;50.954;5.322;2024-02-21T13:17:55;4.27;;;2.43;;
21215;SDS011;10765;50.954;5.322;2024-02-21T13:20:23;4.57;;;2.37;;
21215;SDS011;10765;50.954;5.322;2024-02-21T13:22:50;4.10;;;2.20;;
21215;SDS011;10765;50.954;5.322;2024-02-21T13:25:17;4.83;;;2.13;;
21215;SDS011;10765;50.954;5.322;2024-02-21T13:27:46;5.73;;;2.27;;
21215;SDS011;10765;50.954;5.322;2024-02-21T13:30:13;6.17;;;2.43;;
21215;SDS011;10765;50.954;5.322;2024-02-21T13:32:42;4.83;;;2.10;;
21215;SDS011;10765;50.954;5.322;2024-02-21T13:35:11;4.73;;;2.67;;
21215;SDS011;10765;50.954;5.322;2024-02-21T13:37:38;3.90;;;1.90;;
21215;SDS011;10765;50.954;5.322;2024-02-21T13:40:05;5.03;;;2.27;;
21215;SDS011;10765;50.954;5.322;2024-02-21T13:42:34;4.30;;;2.23;;
21215;SDS011;10765;50.954;5.322;2024-02-21T13:45:01;3.03;;;1.87;;
21215;SDS011;10765;50.954;5.322;2024-02-21T13:47:28;4.23;;;2.00;;
21215;SDS011;10765;50.954;5.322;2024-02-21T13:49:56;3.87;;;2.10;;
21215;SDS011;10765;50.954;5.322;2024-02-21T13:52:23;4.17;;;2.33;;
21215;SDS011;10765;50.954;5.322;2024-02-21T13:54:51;6.73;;;2.13;;
21215;SDS011;10765;50.954;5.322;2024-02-21T13:57:18;5.43;;;2.27;;
21215;SDS011;10765;50.954;5.322;2024-02-21T13:59:45;4.00;;;2.20;;
21215;SDS011;10765;50.954;5.322;2024-02-21T14:02:12;4.27;;;2.10;;
21215;SDS011;10765;50.954;5.322;2024-02-21T14:04:39;5.07;;;2.50;;
21215;SDS011;10765;50.954;5.322;2024-02-21T14:07:07;4.53;;;2.60;;
21215;SDS011;10765;50.954;5.322;2024-02-21T14:09:34;4.03;;;2.53;;
21215;SDS011;10765;50.954;5.322;2024-02-21T14:12:01;5.67;;;2.53;;
21215;SDS011;10765;50.954;5.322;2024-02-21T14:14:33;5.67;;;2.23;;
21215;SDS011;10765;50.954;5.322;2024-02-21T14:17:00;6.53;;;2.63;;
21215;SDS011;10765;50.954;5.322;2024-02-21T14:19:27;5.07;;;2.50;;
21215;SDS011;10765;50.954;5.322;2024-02-21T14:21:54;3.67;;;2.30;;
21215;SDS011;10765;50.954;5.322;2024-02-21T14:24:23;3.83;;;2.57;;
21215;SDS011;10765;50.954;5.322;2024-02-21T14:26:50;4.50;;;2.50;;
21215;SDS011;10765;50.954;5.322;2024-02-21T14:29:16;3.03;;;2.03;;
21215;SDS011;10765;50.954;5.322;2024-02-21T14:31:43;5.10;;;2.60;;
21215;SDS011;10765;50.954;5.322;2024-02-21T14:34:10;5.57;;;2.50;;
21215;SDS011;10765;50.954;5.322;2024-02-21T14:36:37;4.30;;;2.23;;
21215;SDS011;10765;50.954;5.322;2024-02-21T14:39:06;4.50;;;2.60;;
21215;SDS011;10765;50.954;5.322;2024-02-21T14:41:35;3.53;;;2.30;;